sensor_id;sensor_type;location;lat;lon;timestamp;pressure;altitude;pressure_sealevel;temperature;humidity
36190;BME280;22232;50.914;13.858;2023-03-11T00:00:23;95260.47;;;2.49;100.00
36190;BME280;22232;50.914;13.858;2023-03-11T00:02:53;95273.59;;;2.27;100.00
36190;BME280;22232;50.914;13.858;2023-03-11T00:05:24;95294.22;;;2.01;100.00
36190;BME280;22232;50.914;13.858;2023-03-11T00:07:53;95302.34;;;1.83;100.00
36190;BME280;22232;50.914;13.858;2023-03-11T00:10:29;95308.84;;;1.80;100.00
36190;BME280;22232;50.914;13.858;2023-03-11T00:12:58;95320.38;;;1.63;100.00
36190;BME280;22232;50.914;13.858;2023-03-11T00:15:27;95310.03;;;1.44;100.00
36190;BME280;22232;50.914;13.858;2023-03-11T00:17:55;95313.94;;;1.42;100.00
36190;BME280;22232;50.914;13.858;2023-03-11T00:20:27;95307.25;;;1.34;100.00
36190;BME280;22232;50.914;13.858;2023-03-11T00:22:55;95321.06;;;1.29;100.00
36190;BME280;22232;50.914;13.858;2023-03-11T00:25:25;95329.03;;;1.34;100.00
36190;BME280;22232;50.914;13.858;2023-03-11T00:27:53;95328.72;;;1.31;100.00
36190;BME280;22232;50.914;13.858;2023-03-11T00:30:22;95326.78;;;1.26;100.00
36190;BME280;22232;50.914;13.858;2023-03-11T00:32:52;95318.69;;;1.16;100.00
36190;BME280;22232;50.914;13.858;2023-03-11T00:35:25;95313.66;;;1.14;100.00
36190;BME280;22232;50.914;13.858;2023-03-11T00:37:56;95328.19;;;1.05;100.00
36190;BME280;22232;50.914;13.858;2023-03-11T00:40:26;95331.41;;;0.96;100.00
36190;BME280;22232;50.914;13.858;2023-03-11T00:42:55;95336.31;;;0.92;100.00
36190;BME280;22232;50.914;13.858;2023-03-11T00:45:23;95340.88;;;0.85;100.00
36190;BME280;22232;50.914;13.858;2023-03-11T00:47:51;95340.09;;;0.84;100.00
36190;BME280;22232;50.914;13.858;2023-03-11T00:50:22;95347.75;;;0.74;100.00
36190;BME280;22232;50.914;13.858;2023-03-11T00:52:51;95347.41;;;0.82;100.00
36190;BME280;22232;50.914;13.858;2023-03-11T00:55:25;95349.34;;;0.75;100.00
36190;BME280;22232;50.914;13.858;2023-03-11T00:57:55;95342.50;;;0.74;100.00
36190;BME280;22232;50.914;13.858;2023-03-11T01:00:27;95356.66;;;0.61;100.00
36190;BME280;22232;50.914;13.858;2023-03-11T01:02:55;95369.66;;;0.68;100.00
36190;BME280;22232;50.914;13.858;2023-03-11T01:05:26;95344.44;;;0.67;100.00
36190;BME280;22232;50.914;13.858;2023-03-11T01:07:54;95362.34;;;0.58;100.00
36190;BME280;22232;50.914;13.858;2023-03-11T01:10:22;95351.94;;;0.63;100.00
36190;BME280;22232;50.914;13.858;2023-03-11T01:12:50;95345.00;;;0.57;100.00
36190;BME280;22232;50.914;13.858;2023-03-11T01:15:24;95375.47;;;0.58;100.00
36190;BME280;22232;50.914;13.858;2023-03-11T01:17:52;95370.22;;;0.58;100.00
36190;BME280;22232;50.914;13.858;2023-03-11T01:20:20;95380.00;;;0.51;100.00
36190;BME280;22232;50.914;13.858;2023-03-11T01:22:48;95379.66;;;0.48;100.00
36190;BME280;22232;50.914;13.858;2023-03-11T01:25:18;95377.72;;;0.43;100.00
36190;BME280;22232;50.914;13.858;2023-03-11T01:27:46;95407.25;;;0.50;100.00
36190;BME280;22232;50.914;13.858;2023-03-11T01:32:45;95393.47;;;0.43;100.00
36190;BME280;22232;50.914;13.858;2023-03-11T01:35:14;95397.69;;;0.44;100.00
36190;BME280;22232;50.914;13.858;2023-03-11T01:37:42;95407.94;;;0.45;100.00
36190;BME280;22232;50.914;13.858;2023-03-11T01:40:19;95409.75;;;0.45;100.00
36190;BME280;22232;50.914;13.858;2023-03-11T01:42:47;95422.84;;;0.33;100.00
36190;BME280;22232;50.914;13.858;2023-03-11T01:47:55;95438.22;;;0.30;100.00
36190;BME280;22232;50.914;13.858;2023-03-11T01:50:24;95451.34;;;0.30;100.00
36190;BME280;22232;50.914;13.858;2023-03-11T01:52:53;95463.91;;;0.39;100.00
36190;BME280;22232;50.914;13.858;2023-03-11T01:55:20;95454.69;;;0.37;100.00
36190;BME280;22232;50.914;13.858;2023-03-11T01:57:49;95464.56;;;0.35;100.00
36190;BME280;22232;50.914;13.858;2023-03-11T02:00:18;95480.44;;;0.40;100.00
36190;BME280;22232;50.914;13.858;2023-03-11T02:02:51;95491.69;;;0.29;100.00
36190;BME280;22232;50.914;13.858;2023-03-11T02:05:21;95492.34;;;0.24;100.00
36190;BME280;22232;50.914;13.858;2023-03-11T02:07:51;95489.38;;;0.20;100.00
36190;BME280;22232;50.914;13.858;2023-03-11T02:10:24;95487.63;;;0.14;100.00
36190;BME280;22232;50.914;13.858;2023-03-11T02:12:56;95495.84;;;0.18;100.00
36190;BME280;22232;50.914;13.858;2023-03-11T02:15:28;95513.31;;;0.24;100.00
36190;BME280;22232;50.914;13.858;2023-03-11T02:17:57;95513.19;;;0.19;100.00
36190;BME280;22232;50.914;13.858;2023-03-11T02:20:35;95494.41;;;0.22;100.00
36190;BME280;22232;50.914;13.858;2023-03-11T02:23:16;95515.38;;;0.22;100.00
36190;BME280;22232;50.914;13.858;2023-03-11T02:25:52;95516.03;;;0.17;100.00
36190;BME280;22232;50.914;13.858;2023-03-11T02:28:22;95534.97;;;0.19;100.00
36190;BME280;22232;50.914;13.858;2023-03-11T02:30:51;95531.19;;;0.15;100.00
36190;BME280;22232;50.914;13.858;2023-03-11T02:33:20;95525.13;;;0.15;100.00
36190;BME280;22232;50.914;13.858;2023-03-11T02:35:50;95533.59;;;0.17;100.00
36190;BME280;22232;50.914;13.858;2023-03-11T02:38:18;95558.41;;;0.14;100.00
36190;BME280;22232;50.914;13.858;2023-03-11T02:41:00;95525.72;;;0.17;100.00
36190;BME280;22232;50.914;13.858;2023-03-11T02:43:39;95561.38;;;0.18;100.00
36190;BME280;22232;50.914;13.858;2023-03-11T02:46:10;95560.16;;;0.20;100.00
36190;BME280;22232;50.914;13.858;2023-03-11T02:48:38;95564.59;;;0.20;100.00
36190;BME280;22232;50.914;13.858;2023-03-11T02:51:06;95567.66;;;0.17;100.00
36190;BME280;22232;50.914;13.858;2023-03-11T02:53:40;95571.50;;;0.14;100.00
36190;BME280;22232;50.914;13.858;2023-03-11T02:56:09;95577.56;;;0.15;100.00
36190;BME280;22232;50.914;13.858;2023-03-11T02:58:37;95569.66;;;0.03;100.00
36190;BME280;22232;50.914;13.858;2023-03-11T03:01:05;95591.47;;;-0.03;100.00
36190;BME280;22232;50.914;13.858;2023-03-11T03:03:33;95607.56;;;0.01;100.00
36190;BME280;22232;50.914;13.858;2023-03-11T03:06:01;95629.41;;;-0.06;100.00
36190;BME280;22232;50.914;13.858;2023-03-11T03:08:29;95629.31;;;-0.17;100.00
36190;BME280;22232;50.914;13.858;2023-03-11T03:10:56;95637.00;;;-0.22;100.00
36190;BME280;22232;50.914;13.858;2023-03-11T03:13:26;95632.03;;;-0.31;100.00
36190;BME280;22232;50.914;13.858;2023-03-11T03:15:55;95648.41;;;-0.35;100.00
36190;BME280;22232;50.914;13.858;2023-03-11T03:18:23;95657.88;;;-0.34;100.00
36190;BME280;22232;50.914;13.858;2023-03-11T03:20:51;95666.94;;;-0.37;100.00
36190;BME280;22232;50.914;13.858;2023-03-11T03:23:19;95659.50;;;-0.33;100.00
36190;BME280;22232;50.914;13.858;2023-03-11T03:25:47;95684.13;;;-0.41;100.00
36190;BME280;22232;50.914;13.858;2023-03-11T03:28:14;95685.72;;;-0.40;100.00
36190;BME280;22232;50.914;13.858;2023-03-11T03:30:44;95691.19;;;-0.41;100.00
36190;BME280;22232;50.914;13.858;2023-03-11T03:33:13;95702.50;;;-0.48;100.00
36190;BME280;22232;50.914;13.858;2023-03-11T03:35:42;95711.53;;;-0.43;100.00
36190;BME280;22232;50.914;13.858;2023-03-11T03:38:18;95725.75;;;-0.58;100.00
36190;BME280;22232;50.914;13.858;2023-03-11T03:40:48;95728.13;;;-0.56;100.00
36190;BME280;22232;50.914;13.858;2023-03-11T03:43:19;95738.19;;;-0.53;100.00
36190;BME280;22232;50.914;13.858;2023-03-11T03:45:58;95741.78;;;-0.48;100.00
36190;BME280;22232;50.914;13.858;2023-03-11T03:48:29;95762.94;;;-0.49;100.00
36190;BME280;22232;50.914;13.858;2023-03-11T03:51:07;95753.09;;;-0.54;100.00
36190;BME280;22232;50.914;13.858;2023-03-11T03:53:37;95772.69;;;-0.63;100.00
36190;BME280;22232;50.914;13.858;2023-03-11T03:56:07;95771.91;;;-0.63;100.00
36190;BME280;22232;50.914;13.858;2023-03-11T03:58:35;95788.28;;;-0.81;100.00
36190;BME280;22232;50.914;13.858;2023-03-11T04:01:04;95765.16;;;-0.84;100.00
36190;BME280;22232;50.914;13.858;2023-03-11T04:03:33;95803.16;;;-0.75;100.00
36190;BME280;22232;50.914;13.858;2023-03-11T04:06:16;95818.06;;;-0.82;100.00
36190;BME280;22232;50.914;13.858;2023-03-11T04:08:44;95824.13;;;-0.82;100.00
36190;BME280;22232;50.914;13.858;2023-03-11T04:11:12;95825.31;;;-0.78;100.00
36190;BME280;22232;50.914;13.858;2023-03-11T04:13:41;95847.69;;;-0.82;100.00
36190;BME280;22232;50.914;13.858;2023-03-11T04:16:20;95833.16;;;-0.78;100.00
36190;BME280;22232;50.914;13.858;2023-03-11T04:18:51;95826.91;;;-0.77;100.00
36190;BME280;22232;50.914;13.858;2023-03-11T04:21:19;95851.50;;;-0.78;100.00
36190;BME280;22232;50.914;13.858;2023-03-11T04:23:47;95849.28;;;-0.81;100.00
36190;BME280;22232;50.914;13.858;2023-03-11T04:26:17;95859.94;;;-0.82;100.00
36190;BME280;22232;50.914;13.858;2023-03-11T04:28:45;95859.78;;;-0.87;100.00
36190;BME280;22232;50.914;13.858;2023-03-11T04:31:16;95867.81;;;-0.82;100.00
36190;BME280;22232;50.914;13.858;2023-03-11T04:33:43;95893.19;;;-0.83;100.00
36190;BME280;22232;50.914;13.858;2023-03-11T04:36:12;95868.22;;;-0.85;100.00
36190;BME280;22232;50.914;13.858;2023-03-11T04:38:40;95879.09;;;-0.88;100.00
36190;BME280;22232;50.914;13.858;2023-03-11T04:41:10;95895.22;;;-0.85;100.00
36190;BME280;22232;50.914;13.858;2023-03-11T04:43:39;95907.09;;;-0.89;100.00
36190;BME280;22232;50.914;13.858;2023-03-11T04:46:07;95902.25;;;-0.85;100.00
36190;BME280;22232;50.914;13.858;2023-03-11T04:48:35;95915.94;;;-0.83;100.00
36190;BME280;22232;50.914;13.858;2023-03-11T04:51:02;95916.31;;;-0.80;100.00
36190;BME280;22232;50.914;13.858;2023-03-11T04:53:30;95917.34;;;-0.81;100.00
36190;BME280;22232;50.914;13.858;2023-03-11T04:55:58;95934.66;;;-0.86;100.00
36190;BME280;22232;50.914;13.858;2023-03-11T04:58:25;95946.94;;;-0.87;100.00
36190;BME280;22232;50.914;13.858;2023-03-11T05:00:54;95925.22;;;-0.87;100.00
36190;BME280;22232;50.914;13.858;2023-03-11T05:03:23;95952.59;;;-0.90;100.00
36190;BME280;22232;50.914;13.858;2023-03-11T05:05:50;95946.91;;;-0.74;100.00
36190;BME280;22232;50.914;13.858;2023-03-11T05:08:22;95951.59;;;-0.96;100.00
36190;BME280;22232;50.914;13.858;2023-03-11T05:10:51;95970.72;;;-0.95;100.00
36190;BME280;22232;50.914;13.858;2023-03-11T05:13:22;95984.41;;;-0.93;100.00
36190;BME280;22232;50.914;13.858;2023-03-11T05:15:51;95993.88;;;-0.99;100.00
36190;BME280;22232;50.914;13.858;2023-03-11T05:18:20;95995.88;;;-0.94;100.00
36190;BME280;22232;50.914;13.858;2023-03-11T05:20:48;95996.06;;;-0.82;100.00
36190;BME280;22232;50.914;13.858;2023-03-11T05:23:18;96001.50;;;-0.84;100.00
36190;BME280;22232;50.914;13.858;2023-03-11T05:25:45;96024.69;;;-0.94;100.00
36190;BME280;22232;50.914;13.858;2023-03-11T05:28:13;96030.31;;;-0.90;100.00
36190;BME280;22232;50.914;13.858;2023-03-11T05:30:48;96032.53;;;-0.87;100.00
36190;BME280;22232;50.914;13.858;2023-03-11T05:33:17;96041.38;;;-0.82;100.00
36190;BME280;22232;50.914;13.858;2023-03-11T05:35:45;96046.00;;;-0.90;100.00
36190;BME280;22232;50.914;13.858;2023-03-11T05:38:13;96058.88;;;-0.89;100.00
36190;BME280;22232;50.914;13.858;2023-03-11T05:40:41;96062.91;;;-0.93;100.00
36190;BME280;22232;50.914;13.858;2023-03-11T05:43:09;96069.34;;;-0.96;100.00
36190;BME280;22232;50.914;13.858;2023-03-11T05:45:40;96065.94;;;-0.96;100.00
36190;BME280;22232;50.914;13.858;2023-03-11T05:48:07;96077.19;;;-0.96;100.00
36190;BME280;22232;50.914;13.858;2023-03-11T05:50:36;96083.84;;;-0.93;100.00
36190;BME280;22232;50.914;13.858;2023-03-11T05:53:04;96078.81;;;-0.88;100.00
36190;BME280;22232;50.914;13.858;2023-03-11T05:55:32;96091.91;;;-0.88;100.00
36190;BME280;22232;50.914;13.858;2023-03-11T05:58:00;96096.34;;;-0.82;100.00
36190;BME280;22232;50.914;13.858;2023-03-11T06:00:27;96102.97;;;-0.86;100.00
36190;BME280;22232;50.914;13.858;2023-03-11T06:02:58;96110.41;;;-0.83;100.00
36190;BME280;22232;50.914;13.858;2023-03-11T06:05:26;96116.06;;;-0.86;100.00
36190;BME280;22232;50.914;13.858;2023-03-11T06:07:55;96111.22;;;-0.82;100.00
36190;BME280;22232;50.914;13.858;2023-03-11T06:10:23;96119.47;;;-0.85;100.00
36190;BME280;22232;50.914;13.858;2023-03-11T06:12:51;96153.09;;;-0.82;100.00
36190;BME280;22232;50.914;13.858;2023-03-11T06:15:23;96150.28;;;-0.81;100.00
36190;BME280;22232;50.914;13.858;2023-03-11T06:17:52;96161.34;;;-0.85;100.00
36190;BME280;22232;50.914;13.858;2023-03-11T06:20:20;96173.84;;;-0.87;100.00
36190;BME280;22232;50.914;13.858;2023-03-11T06:22:48;96174.44;;;-0.85;100.00
36190;BME280;22232;50.914;13.858;2023-03-11T06:25:16;96170.63;;;-0.83;100.00
36190;BME280;22232;50.914;13.858;2023-03-11T06:27:50;96184.50;;;-0.82;100.00
36190;BME280;22232;50.914;13.858;2023-03-11T06:34:12;96201.28;;;-0.63;100.00
36190;BME280;22232;50.914;13.858;2023-03-11T06:36:40;96220.19;;;-0.75;100.00
36190;BME280;22232;50.914;13.858;2023-03-11T06:39:11;96212.34;;;-0.61;100.00
36190;BME280;22232;50.914;13.858;2023-03-11T06:41:39;96207.72;;;-0.66;100.00
36190;BME280;22232;50.914;13.858;2023-03-11T06:44:09;96214.94;;;-0.61;100.00
36190;BME280;22232;50.914;13.858;2023-03-11T06:46:38;96231.50;;;-0.61;100.00
36190;BME280;22232;50.914;13.858;2023-03-11T06:49:06;96249.44;;;-0.58;100.00
36190;BME280;22232;50.914;13.858;2023-03-11T06:51:35;96249.63;;;-0.59;100.00
36190;BME280;22232;50.914;13.858;2023-03-11T06:54:03;96260.94;;;-0.45;100.00
36190;BME280;22232;50.914;13.858;2023-03-11T06:56:32;96266.75;;;-0.57;100.00
36190;BME280;22232;50.914;13.858;2023-03-11T06:59:04;96264.94;;;-0.50;100.00
36190;BME280;22232;50.914;13.858;2023-03-11T07:01:33;96275.22;;;-0.55;100.00
36190;BME280;22232;50.914;13.858;2023-03-11T07:04:03;96287.69;;;-0.50;100.00
36190;BME280;22232;50.914;13.858;2023-03-11T07:06:32;96292.31;;;-0.52;100.00
36190;BME280;22232;50.914;13.858;2023-03-11T07:09:05;96301.38;;;-0.61;100.00
36190;BME280;22232;50.914;13.858;2023-03-11T07:11:35;96313.28;;;-0.52;100.00
36190;BME280;22232;50.914;13.858;2023-03-11T07:14:10;96321.16;;;-0.45;100.00
36190;BME280;22232;50.914;13.858;2023-03-11T07:16:42;96324.38;;;-0.50;100.00
36190;BME280;22232;50.914;13.858;2023-03-11T07:19:16;96332.44;;;-0.45;100.00
36190;BME280;22232;50.914;13.858;2023-03-11T07:21:44;96338.88;;;-0.48;100.00
36190;BME280;22232;50.914;13.858;2023-03-11T07:24:12;96343.69;;;-0.58;100.00
36190;BME280;22232;50.914;13.858;2023-03-11T07:26:42;96354.16;;;-0.58;100.00
36190;BME280;22232;50.914;13.858;2023-03-11T07:29:10;96360.22;;;-0.51;100.00
36190;BME280;22232;50.914;13.858;2023-03-11T07:31:38;96374.91;;;-0.56;100.00
36190;BME280;22232;50.914;13.858;2023-03-11T07:34:06;96376.72;;;-0.63;100.00
36190;BME280;22232;50.914;13.858;2023-03-11T07:36:40;96378.34;;;-0.56;100.00
36190;BME280;22232;50.914;13.858;2023-03-11T07:39:17;96377.13;;;-0.53;100.00
36190;BME280;22232;50.914;13.858;2023-03-11T07:41:46;96387.00;;;-0.55;100.00
36190;BME280;22232;50.914;13.858;2023-03-11T07:44:14;96369.50;;;-0.48;100.00
36190;BME280;22232;50.914;13.858;2023-03-11T07:46:43;96405.16;;;-0.47;100.00
36190;BME280;22232;50.914;13.858;2023-03-11T07:49:11;96403.75;;;-0.43;100.00
36190;BME280;22232;50.914;13.858;2023-03-11T07:51:39;96422.94;;;-0.42;100.00
36190;BME280;22232;50.914;13.858;2023-03-11T07:54:10;96410.38;;;-0.54;100.00
36190;BME280;22232;50.914;13.858;2023-03-11T07:56:38;96425.72;;;-0.44;100.00
36190;BME280;22232;50.914;13.858;2023-03-11T07:59:05;96423.50;;;-0.47;100.00
36190;BME280;22232;50.914;13.858;2023-03-11T08:01:33;96446.13;;;-0.39;100.00
36190;BME280;22232;50.914;13.858;2023-03-11T08:04:04;96454.16;;;-0.41;100.00
36190;BME280;22232;50.914;13.858;2023-03-11T08:06:34;96449.91;;;-0.49;100.00
36190;BME280;22232;50.914;13.858;2023-03-11T08:09:05;96463.00;;;-0.49;100.00
36190;BME280;22232;50.914;13.858;2023-03-11T08:11:34;96473.94;;;-0.32;100.00
36190;BME280;22232;50.914;13.858;2023-03-11T08:14:02;96470.25;;;-0.44;100.00
36190;BME280;22232;50.914;13.858;2023-03-11T08:16:30;96475.22;;;-0.21;100.00
36190;BME280;22232;50.914;13.858;2023-03-11T08:18:58;96478.81;;;-0.22;100.00
36190;BME280;22232;50.914;13.858;2023-03-11T08:21:27;96489.91;;;-0.27;100.00
36190;BME280;22232;50.914;13.858;2023-03-11T08:23:57;96483.97;;;-0.42;100.00
36190;BME280;22232;50.914;13.858;2023-03-11T08:26:25;96495.34;;;-0.21;100.00
36190;BME280;22232;50.914;13.858;2023-03-11T08:28:54;96498.03;;;-0.08;100.00
36190;BME280;22232;50.914;13.858;2023-03-11T08:31:24;96501.22;;;-0.13;100.00
36190;BME280;22232;50.914;13.858;2023-03-11T08:33:57;96502.47;;;-0.09;100.00
36190;BME280;22232;50.914;13.858;2023-03-11T08:36:25;96504.50;;;0.03;100.00
36190;BME280;22232;50.914;13.858;2023-03-11T08:38:53;96516.03;;;0.08;100.00
36190;BME280;22232;50.914;13.858;2023-03-11T08:41:20;96525.13;;;0.12;100.00
36190;BME280;22232;50.914;13.858;2023-03-11T08:43:48;96519.50;;;0.15;100.00
36190;BME280;22232;50.914;13.858;2023-03-11T08:46:27;96527.38;;;0.15;100.00
36190;BME280;22232;50.914;13.858;2023-03-11T08:48:55;96536.88;;;0.23;100.00
36190;BME280;22232;50.914;13.858;2023-03-11T08:51:28;96536.72;;;0.38;100.00
36190;BME280;22232;50.914;13.858;2023-03-11T08:53:56;96551.44;;;0.39;100.00
36190;BME280;22232;50.914;13.858;2023-03-11T08:56:24;96556.28;;;0.49;100.00
36190;BME280;22232;50.914;13.858;2023-03-11T08:58:51;96549.03;;;0.44;100.00
36190;BME280;22232;50.914;13.858;2023-03-11T09:01:19;96557.53;;;0.46;100.00
36190;BME280;22232;50.914;13.858;2023-03-11T09:03:47;96569.47;;;0.62;100.00
36190;BME280;22232;50.914;13.858;2023-03-11T09:06:15;96577.31;;;0.55;100.00
36190;BME280;22232;50.914;13.858;2023-03-11T09:08:44;96580.78;;;0.69;100.00
36190;BME280;22232;50.914;13.858;2023-03-11T09:11:13;96580.34;;;0.52;100.00
36190;BME280;22232;50.914;13.858;2023-03-11T09:13:41;96585.59;;;0.52;100.00
36190;BME280;22232;50.914;13.858;2023-03-11T09:16:18;96597.47;;;0.48;100.00
36190;BME280;22232;50.914;13.858;2023-03-11T09:18:46;96596.41;;;0.36;100.00
36190;BME280;22232;50.914;13.858;2023-03-11T09:21:14;96605.13;;;0.43;100.00
36190;BME280;22232;50.914;13.858;2023-03-11T09:23:41;96602.13;;;0.53;100.00
36190;BME280;22232;50.914;13.858;2023-03-11T09:26:11;96602.16;;;0.59;100.00
36190;BME280;22232;50.914;13.858;2023-03-11T09:28:39;96617.53;;;0.76;100.00
36190;BME280;22232;50.914;13.858;2023-03-11T09:31:07;96616.84;;;0.47;100.00
36190;BME280;22232;50.914;13.858;2023-03-11T09:33:39;96619.84;;;0.44;100.00
36190;BME280;22232;50.914;13.858;2023-03-11T09:36:12;96625.06;;;0.31;100.00
36190;BME280;22232;50.914;13.858;2023-03-11T09:38:40;96636.31;;;0.25;100.00
36190;BME280;22232;50.914;13.858;2023-03-11T09:51:58;96651.97;;;0.11;100.00
36190;BME280;22232;50.914;13.858;2023-03-11T09:54:36;96646.34;;;0.14;100.00
36190;BME280;22232;50.914;13.858;2023-03-11T09:57:06;96652.47;;;0.28;100.00
36190;BME280;22232;50.914;13.858;2023-03-11T09:59:39;96650.38;;;0.17;100.00
36190;BME280;22232;50.914;13.858;2023-03-11T10:02:19;96656.97;;;0.41;100.00
36190;BME280;22232;50.914;13.858;2023-03-11T10:04:55;96667.75;;;0.59;100.00
36190;BME280;22232;50.914;13.858;2023-03-11T10:07:27;96673.66;;;0.75;100.00
36190;BME280;22232;50.914;13.858;2023-03-11T10:09:58;96678.09;;;0.67;100.00
36190;BME280;22232;50.914;13.858;2023-03-11T10:15:18;96680.75;;;0.81;100.00
36190;BME280;22232;50.914;13.858;2023-03-11T10:20:39;96693.91;;;0.94;100.00
36190;BME280;22232;50.914;13.858;2023-03-11T10:33:51;96690.28;;;0.88;100.00
36190;BME280;22232;50.914;13.858;2023-03-11T10:36:34;96706.84;;;0.89;100.00
36190;BME280;22232;50.914;13.858;2023-03-11T10:39:03;96713.28;;;0.86;100.00
36190;BME280;22232;50.914;13.858;2023-03-11T10:41:43;96705.78;;;0.77;100.00
36190;BME280;22232;50.914;13.858;2023-03-11T10:44:24;96722.47;;;0.62;100.00
36190;BME280;22232;50.914;13.858;2023-03-11T10:46:54;96723.28;;;0.69;100.00
36190;BME280;22232;50.914;13.858;2023-03-11T10:49:21;96733.34;;;0.59;100.00
36190;BME280;22232;50.914;13.858;2023-03-11T10:51:51;96739.75;;;0.50;100.00
36190;BME280;22232;50.914;13.858;2023-03-11T10:54:41;96742.16;;;0.52;100.00
36190;BME280;22232;50.914;13.858;2023-03-11T10:57:22;96745.56;;;0.80;100.00
36190;BME280;22232;50.914;13.858;2023-03-11T10:59:54;96741.94;;;0.88;100.00
36190;BME280;22232;50.914;13.858;2023-03-11T11:02:37;96743.63;;;1.02;100.00
36190;BME280;22232;50.914;13.858;2023-03-11T11:07:49;96747.44;;;1.00;100.00
36190;BME280;22232;50.914;13.858;2023-03-11T11:10:19;96742.47;;;1.18;100.00
36190;BME280;22232;50.914;13.858;2023-03-11T11:15:27;96754.16;;;1.15;100.00
36190;BME280;22232;50.914;13.858;2023-03-11T11:18:00;96756.41;;;1.19;100.00
36190;BME280;22232;50.914;13.858;2023-03-11T11:20:29;96758.44;;;1.17;100.00
36190;BME280;22232;50.914;13.858;2023-03-11T11:22:59;96746.41;;;0.94;100.00
36190;BME280;22232;50.914;13.858;2023-03-11T11:25:36;96756.75;;;0.96;100.00
36190;BME280;22232;50.914;13.858;2023-03-11T11:28:18;96771.03;;;0.86;100.00
36190;BME280;22232;50.914;13.858;2023-03-11T11:31:05;96772.44;;;0.82;100.00
36190;BME280;22232;50.914;13.858;2023-03-11T11:33:48;96766.56;;;0.80;100.00
36190;BME280;22232;50.914;13.858;2023-03-11T11:36:17;96781.09;;;0.76;100.00
36190;BME280;22232;50.914;13.858;2023-03-11T11:38:44;96777.09;;;0.87;100.00
36190;BME280;22232;50.914;13.858;2023-03-11T11:41:15;96786.66;;;1.01;100.00
36190;BME280;22232;50.914;13.858;2023-03-11T11:43:48;96778.91;;;0.86;100.00
36190;BME280;22232;50.914;13.858;2023-03-11T11:49:02;96783.50;;;1.19;100.00
36190;BME280;22232;50.914;13.858;2023-03-11T11:51:34;96795.25;;;1.36;100.00
36190;BME280;22232;50.914;13.858;2023-03-11T11:56:54;96788.63;;;1.47;100.00
36190;BME280;22232;50.914;13.858;2023-03-11T11:59:23;96799.38;;;1.52;100.00
36190;BME280;22232;50.914;13.858;2023-03-11T12:04:52;96793.25;;;1.32;100.00
36190;BME280;22232;50.914;13.858;2023-03-11T12:07:52;96805.84;;;1.50;100.00
36190;BME280;22232;50.914;13.858;2023-03-11T12:19:12;96789.28;;;1.76;100.00
36190;BME280;22232;50.914;13.858;2023-03-11T12:27:10;96803.72;;;2.26;100.00
36190;BME280;22232;50.914;13.858;2023-03-11T12:29:43;96794.19;;;1.92;100.00
36190;BME280;22232;50.914;13.858;2023-03-11T12:32:27;96797.19;;;1.76;100.00
36190;BME280;22232;50.914;13.858;2023-03-11T12:35:47;96797.63;;;1.99;100.00
36190;BME280;22232;50.914;13.858;2023-03-11T12:46:11;96794.16;;;1.79;100.00
36190;BME280;22232;50.914;13.858;2023-03-11T12:49:10;96784.19;;;1.41;100.00
36190;BME280;22232;50.914;13.858;2023-03-11T12:51:39;96803.75;;;1.32;100.00
36190;BME280;22232;50.914;13.858;2023-03-11T12:54:47;96796.84;;;1.24;100.00
36190;BME280;22232;50.914;13.858;2023-03-11T13:03:03;96811.53;;;1.12;100.00
36190;BME280;22232;50.914;13.858;2023-03-11T13:05:49;96811.09;;;1.02;100.00
36190;BME280;22232;50.914;13.858;2023-03-11T13:08:34;96818.84;;;0.82;100.00
36190;BME280;22232;50.914;13.858;2023-03-11T13:11:35;96818.84;;;0.82;100.00
36190;BME280;22232;50.914;13.858;2023-03-11T13:17:24;96823.31;;;0.88;100.00
36190;BME280;22232;50.914;13.858;2023-03-11T13:19:57;96831.00;;;0.83;100.00
36190;BME280;22232;50.914;13.858;2023-03-11T13:28:46;96845.28;;;0.74;100.00
36190;BME280;22232;50.914;13.858;2023-03-11T13:31:43;96841.00;;;0.73;100.00
36190;BME280;22232;50.914;13.858;2023-03-11T13:37:14;96850.72;;;0.79;100.00
36190;BME280;22232;50.914;13.858;2023-03-11T13:42:39;96866.00;;;0.97;100.00
36190;BME280;22232;50.914;13.858;2023-03-11T13:45:22;96875.41;;;0.84;100.00
36190;BME280;22232;50.914;13.858;2023-03-11T13:47:52;96884.63;;;0.74;100.00
36190;BME280;22232;50.914;13.858;2023-03-11T13:50:39;96881.75;;;0.68;100.00
36190;BME280;22232;50.914;13.858;2023-03-11T13:53:24;96888.19;;;0.38;100.00
36190;BME280;22232;50.914;13.858;2023-03-11T13:55:54;96894.66;;;0.42;100.00
36190;BME280;22232;50.914;13.858;2023-03-11T13:58:24;96902.13;;;0.66;100.00
36190;BME280;22232;50.914;13.858;2023-03-11T14:00:57;96906.53;;;0.87;100.00
36190;BME280;22232;50.914;13.858;2023-03-11T14:03:27;96904.81;;;1.01;100.00
36190;BME280;22232;50.914;13.858;2023-03-11T14:06:04;96900.06;;;1.18;100.00
36190;BME280;22232;50.914;13.858;2023-03-11T14:08:35;96908.88;;;1.45;100.00
36190;BME280;22232;50.914;13.858;2023-03-11T14:13:43;96909.00;;;1.30;100.00
36190;BME280;22232;50.914;13.858;2023-03-11T14:16:14;96912.50;;;1.37;100.00
36190;BME280;22232;50.914;13.858;2023-03-11T14:18:45;96915.63;;;1.20;100.00
36190;BME280;22232;50.914;13.858;2023-03-11T14:21:21;96912.31;;;1.04;100.00
36190;BME280;22232;50.914;13.858;2023-03-11T14:23:50;96922.22;;;1.09;100.00
36190;BME280;22232;50.914;13.858;2023-03-11T14:26:28;96918.97;;;0.79;100.00
36190;BME280;22232;50.914;13.858;2023-03-11T14:29:04;96917.09;;;0.73;100.00
36190;BME280;22232;50.914;13.858;2023-03-11T14:31:39;96931.63;;;0.68;100.00
36190;BME280;22232;50.914;13.858;2023-03-11T14:36:42;96937.19;;;0.80;100.00
36190;BME280;22232;50.914;13.858;2023-03-11T14:39:28;96941.66;;;0.86;100.00
36190;BME280;22232;50.914;13.858;2023-03-11T14:44:27;96945.72;;;0.89;100.00
36190;BME280;22232;50.914;13.858;2023-03-11T14:47:08;96951.34;;;0.86;100.00